sensor_id;sensor_type;location;lat;lon;timestamp;P1;durP1;ratioP1;P2;durP2;ratioP2
63587;SDS011;49966;46.896;18.004;2023-06-24T07:38:20;1.48;;;1.38;;
63587;SDS011;49966;46.896;18.004;2023-06-24T07:40:50;2.72;;;1.05;;
63587;SDS011;49966;46.896;18.004;2023-06-24T07:43:20;1.35;;;1.33;;
63587;SDS011;49966;46.896;18.004;2023-06-24T07:52:08;3.35;;;1.45;;
63587;SDS011;49966;46.896;18.004;2023-06-24T07:54:37;1.40;;;1.30;;
63587;SDS011;49966;46.896;18.004;2023-06-24T07:57:15;0.90;;;0.90;;
63587;SDS011;49966;46.896;18.004;2023-06-24T07:59:46;1.23;;;1.23;;
63587;SDS011;49966;46.896;18.004;2023-06-24T08:02:17;1.08;;;1.02;;
63587;SDS011;49966;46.896;18.004;2023-06-24T08:04:48;1.23;;;1.17;;
63587;SDS011;49966;46.896;18.004;2023-06-24T08:07:18;2.92;;;1.30;;
63587;SDS011;49966;46.896;18.004;2023-06-24T08:09:46;1.10;;;1.10;;
63587;SDS011;49966;46.896;18.004;2023-06-24T08:12:15;1.20;;;1.10;;
63587;SDS011;49966;46.896;18.004;2023-06-24T08:14:43;2.90;;;1.25;;
63587;SDS011;49966;46.896;18.004;2023-06-24T08:17:12;1.45;;;1.05;;
63587;SDS011;49966;46.896;18.004;2023-06-24T08:19:40;0.80;;;0.80;;
63587;SDS011;49966;46.896;18.004;2023-06-24T08:23:28;0.80;;;0.80;;
63587;SDS011;49966;46.896;18.004;2023-06-24T08:25:27;0.85;;;0.85;;
63587;SDS011;49966;46.896;18.004;2023-06-24T08:28:12;0.90;;;0.90;;
63587;SDS011;49966;46.896;18.004;2023-06-24T08:31:14;1.58;;;0.90;;
63587;SDS011;49966;46.896;18.004;2023-06-24T08:39:57;0.80;;;0.80;;
63587;SDS011;49966;46.896;18.004;2023-06-24T08:45:44;0.85;;;0.80;;
63587;SDS011;49966;46.896;18.004;2023-06-24T08:48:13;2.80;;;0.93;;
63587;SDS011;49966;46.896;18.004;2023-06-24T08:53:42;1.67;;;1.13;;
63587;SDS011;49966;46.896;18.004;2023-06-24T08:56:11;0.90;;;0.90;;
63587;SDS011;49966;46.896;18.004;2023-06-24T08:58:43;0.95;;;0.95;;
63587;SDS011;49966;46.896;18.004;2023-06-24T09:01:12;1.85;;;0.77;;
63587;SDS011;49966;46.896;18.004;2023-06-24T09:03:44;0.98;;;0.98;;
63587;SDS011;49966;46.896;18.004;2023-06-24T09:06:17;0.90;;;0.80;;
63587;SDS011;49966;46.896;18.004;2023-06-24T09:09:05;3.78;;;1.00;;
63587;SDS011;49966;46.896;18.004;2023-06-24T09:11:51;0.70;;;0.70;;
63587;SDS011;49966;46.896;18.004;2023-06-24T09:14:26;1.85;;;0.75;;
63587;SDS011;49966;46.896;18.004;2023-06-24T09:18:09;0.85;;;0.85;;
63587;SDS011;49966;46.896;18.004;2023-06-24T09:20:25;3.25;;;0.77;;
63587;SDS011;49966;46.896;18.004;2023-06-24T09:23:00;1.65;;;1.55;;
63587;SDS011;49966;46.896;18.004;2023-06-24T09:25:55;1.15;;;0.73;;
63587;SDS011;49966;46.896;18.004;2023-06-24T09:28:26;0.95;;;0.95;;
63587;SDS011;49966;46.896;18.004;2023-06-24T09:31:08;0.88;;;0.88;;
63587;SDS011;49966;46.896;18.004;2023-06-24T09:33:46;0.95;;;0.95;;
63587;SDS011;49966;46.896;18.004;2023-06-24T09:36:18;45.67;;;20.85;;
63587;SDS011;49966;46.896;18.004;2023-06-24T09:38:54;36.47;;;19.27;;
63587;SDS011;49966;46.896;18.004;2023-06-24T09:41:34;12.70;;;6.55;;
63587;SDS011;49966;46.896;18.004;2023-06-24T09:44:19;10.95;;;5.60;;
63587;SDS011;49966;46.896;18.004;2023-06-24T09:46:54;1.75;;;1.65;;
63587;SDS011;49966;46.896;18.004;2023-06-24T09:49:24;1.08;;;1.08;;
63587;SDS011;49966;46.896;18.004;2023-06-24T09:51:54;3.03;;;1.27;;
63587;SDS011;49966;46.896;18.004;2023-06-24T09:54:25;0.77;;;0.77;;
63587;SDS011;49966;46.896;18.004;2023-06-24T09:57:01;1.00;;;0.90;;
63587;SDS011;49966;46.896;18.004;2023-06-24T09:59:31;0.93;;;0.93;;
63587;SDS011;49966;46.896;18.004;2023-06-24T10:02:02;1.50;;;1.08;;
63587;SDS011;49966;46.896;18.004;2023-06-24T10:04:34;0.90;;;0.90;;
63587;SDS011;49966;46.896;18.004;2023-06-24T10:07:02;1.50;;;1.40;;
63587;SDS011;49966;46.896;18.004;2023-06-24T10:09:31;1.08;;;1.00;;
63587;SDS011;49966;46.896;18.004;2023-06-24T10:11:59;1.10;;;0.90;;
63587;SDS011;49966;46.896;18.004;2023-06-24T10:14:30;1.30;;;1.08;;
63587;SDS011;49966;46.896;18.004;2023-06-24T10:17:03;4.32;;;0.95;;
63587;SDS011;49966;46.896;18.004;2023-06-24T10:19:37;1.40;;;1.30;;
63587;SDS011;49966;46.896;18.004;2023-06-24T10:22:07;1.63;;;1.27;;
63587;SDS011;49966;46.896;18.004;2023-06-24T10:24:37;1.15;;;1.15;;
63587;SDS011;49966;46.896;18.004;2023-06-24T10:27:13;1.13;;;1.13;;
63587;SDS011;49966;46.896;18.004;2023-06-24T10:29:44;1.85;;;1.08;;
63587;SDS011;49966;46.896;18.004;2023-06-24T10:32:15;3.03;;;1.10;;
63587;SDS011;49966;46.896;18.004;2023-06-24T10:34:45;1.15;;;1.13;;
63587;SDS011;49966;46.896;18.004;2023-06-24T10:37:17;1.33;;;1.17;;
63587;SDS011;49966;46.896;18.004;2023-06-24T10:39:48;1.10;;;1.10;;
63587;SDS011;49966;46.896;18.004;2023-06-24T10:42:39;1.08;;;1.08;;
63587;SDS011;49966;46.896;18.004;2023-06-24T10:45:19;0.88;;;0.88;;
63587;SDS011;49966;46.896;18.004;2023-06-24T10:47:50;1.33;;;1.33;;
63587;SDS011;49966;46.896;18.004;2023-06-24T10:50:23;1.20;;;1.20;;
63587;SDS011;49966;46.896;18.004;2023-06-24T10:52:53;1.08;;;1.08;;
63587;SDS011;49966;46.896;18.004;2023-06-24T10:55:25;2.28;;;1.23;;
63587;SDS011;49966;46.896;18.004;2023-06-24T10:57:56;1.08;;;1.08;;
63587;SDS011;49966;46.896;18.004;2023-06-24T11:00:38;1.20;;;1.15;;
63587;SDS011;49966;46.896;18.004;2023-06-24T11:03:12;0.95;;;0.95;;
63587;SDS011;49966;46.896;18.004;2023-06-24T11:05:42;1.20;;;1.10;;
63587;SDS011;49966;46.896;18.004;2023-06-24T11:08:11;1.27;;;1.17;;
63587;SDS011;49966;46.896;18.004;2023-06-24T11:10:43;4.88;;;3.35;;
63587;SDS011;49966;46.896;18.004;2023-06-24T11:13:12;6.28;;;3.90;;
63587;SDS011;49966;46.896;18.004;2023-06-24T11:15:41;4.25;;;3.00;;
63587;SDS011;49966;46.896;18.004;2023-06-24T11:18:11;3.17;;;2.00;;
63587;SDS011;49966;46.896;18.004;2023-06-24T11:20:41;3.53;;;1.75;;
63587;SDS011;49966;46.896;18.004;2023-06-24T11:23:10;1.20;;;1.20;;
63587;SDS011;49966;46.896;18.004;2023-06-24T11:25:39;1.70;;;1.60;;
63587;SDS011;49966;46.896;18.004;2023-06-24T11:28:15;1.30;;;1.30;;
63587;SDS011;49966;46.896;18.004;2023-06-24T11:30:49;15.05;;;7.65;;
63587;SDS011;49966;46.896;18.004;2023-06-24T11:33:27;6.63;;;3.40;;
63587;SDS011;49966;46.896;18.004;2023-06-24T11:35:56;4.47;;;3.10;;
63587;SDS011;49966;46.896;18.004;2023-06-24T11:38:24;6.57;;;2.80;;
63587;SDS011;49966;46.896;18.004;2023-06-24T11:40:59;4.43;;;3.03;;
63587;SDS011;49966;46.896;18.004;2023-06-24T11:43:27;3.03;;;2.20;;
63587;SDS011;49966;46.896;18.004;2023-06-24T11:45:59;3.00;;;2.28;;
63587;SDS011;49966;46.896;18.004;2023-06-24T11:48:29;2.55;;;2.08;;
63587;SDS011;49966;46.896;18.004;2023-06-24T11:50:58;1.90;;;1.80;;
63587;SDS011;49966;46.896;18.004;2023-06-24T11:53:29;1.50;;;1.40;;
63587;SDS011;49966;46.896;18.004;2023-06-24T11:55:58;4.78;;;1.60;;
63587;SDS011;49966;46.896;18.004;2023-06-24T11:58:27;1.52;;;1.42;;
63587;SDS011;49966;46.896;18.004;2023-06-24T12:00:58;1.52;;;1.42;;
63587;SDS011;49966;46.896;18.004;2023-06-24T12:03:29;1.63;;;1.52;;
63587;SDS011;49966;46.896;18.004;2023-06-24T12:05:59;1.80;;;1.70;;
63587;SDS011;49966;46.896;18.004;2023-06-24T12:08:42;2.47;;;1.80;;
63587;SDS011;49966;46.896;18.004;2023-06-24T12:11:18;1.65;;;1.55;;
63587;SDS011;49966;46.896;18.004;2023-06-24T12:14:07;1.52;;;1.40;;
63587;SDS011;49966;46.896;18.004;2023-06-24T12:16:44;1.75;;;1.65;;
63587;SDS011;49966;46.896;18.004;2023-06-24T12:19:51;1.70;;;1.60;;
63587;SDS011;49966;46.896;18.004;2023-06-24T12:22:30;1.45;;;1.35;;
63587;SDS011;49966;46.896;18.004;2023-06-24T12:25:01;1.70;;;1.60;;
63587;SDS011;49966;46.896;18.004;2023-06-24T12:27:39;1.63;;;1.52;;
63587;SDS011;49966;46.896;18.004;2023-06-24T12:30:08;1.60;;;1.50;;
63587;SDS011;49966;46.896;18.004;2023-06-24T12:32:44;1.85;;;1.50;;
63587;SDS011;49966;46.896;18.004;2023-06-24T12:35:15;1.42;;;1.42;;
63587;SDS011;49966;46.896;18.004;2023-06-24T12:37:43;1.75;;;1.65;;
63587;SDS011;49966;46.896;18.004;2023-06-24T12:40:12;1.65;;;1.50;;
63587;SDS011;49966;46.896;18.004;2023-06-24T12:43:04;1.58;;;1.30;;
63587;SDS011;49966;46.896;18.004;2023-06-24T12:46:26;2.08;;;1.60;;
63587;SDS011;49966;46.896;18.004;2023-06-24T12:49:39;1.77;;;1.35;;
63587;SDS011;49966;46.896;18.004;2023-06-24T12:58:07;1.85;;;1.70;;
63587;SDS011;49966;46.896;18.004;2023-06-24T13:00:43;2.70;;;1.63;;
63587;SDS011;49966;46.896;18.004;2023-06-24T13:03:16;1.70;;;1.60;;
63587;SDS011;49966;46.896;18.004;2023-06-24T13:10:25;1.70;;;1.60;;
63587;SDS011;49966;46.896;18.004;2023-06-24T13:12:53;2.00;;;1.60;;
63587;SDS011;49966;46.896;18.004;2023-06-24T13:15:46;1.67;;;1.58;;
63587;SDS011;49966;46.896;18.004;2023-06-24T13:18:17;2.15;;;1.65;;
63587;SDS011;49966;46.896;18.004;2023-06-24T13:20:50;2.55;;;1.80;;
63587;SDS011;49966;46.896;18.004;2023-06-24T13:23:36;1.80;;;1.70;;
63587;SDS011;49966;46.896;18.004;2023-06-24T13:26:06;1.88;;;1.60;;
63587;SDS011;49966;46.896;18.004;2023-06-24T13:28:37;1.50;;;1.40;;
63587;SDS011;49966;46.896;18.004;2023-06-24T13:31:06;1.92;;;1.80;;
63587;SDS011;49966;46.896;18.004;2023-06-24T13:33:34;1.45;;;1.45;;
63587;SDS011;49966;46.896;18.004;2023-06-24T13:36:03;1.65;;;1.55;;
63587;SDS011;49966;46.896;18.004;2023-06-24T13:38:32;1.88;;;1.77;;
63587;SDS011;49966;46.896;18.004;2023-06-24T13:41:01;1.73;;;1.63;;
63587;SDS011;49966;46.896;18.004;2023-06-24T13:43:33;1.83;;;1.73;;
63587;SDS011;49966;46.896;18.004;2023-06-24T13:46:01;1.70;;;1.60;;
63587;SDS011;49966;46.896;18.004;2023-06-24T13:48:30;1.90;;;1.70;;
63587;SDS011;49966;46.896;18.004;2023-06-24T13:50:58;1.60;;;1.50;;
63587;SDS011;49966;46.896;18.004;2023-06-24T13:53:29;3.47;;;1.70;;
63587;SDS011;49966;46.896;18.004;2023-06-24T13:55:57;1.58;;;1.48;;
63587;SDS011;49966;46.896;18.004;2023-06-24T13:58:25;2.13;;;1.70;;
63587;SDS011;49966;46.896;18.004;2023-06-24T14:00:55;2.78;;;1.65;;
63587;SDS011;49966;46.896;18.004;2023-06-24T14:03:23;2.33;;;1.92;;
63587;SDS011;49966;46.896;18.004;2023-06-24T14:05:52;1.90;;;1.80;;
63587;SDS011;49966;46.896;18.004;2023-06-24T14:08:20;3.03;;;1.77;;
63587;SDS011;49966;46.896;18.004;2023-06-24T14:10:51;3.92;;;1.77;;
63587;SDS011;49966;46.896;18.004;2023-06-24T14:13:34;1.73;;;1.63;;
63587;SDS011;49966;46.896;18.004;2023-06-24T14:16:04;2.05;;;1.88;;
63587;SDS011;49966;46.896;18.004;2023-06-24T14:18:33;2.08;;;1.80;;
63587;SDS011;49966;46.896;18.004;2023-06-24T14:21:02;2.60;;;1.90;;
63587;SDS011;49966;46.896;18.004;2023-06-24T14:23:31;2.30;;;1.88;;
63587;SDS011;49966;46.896;18.004;2023-06-24T14:26:00;4.10;;;1.67;;
63587;SDS011;49966;46.896;18.004;2023-06-24T14:28:29;2.50;;;2.30;;
63587;SDS011;49966;46.896;18.004;2023-06-24T14:31:16;2.25;;;2.05;;
63587;SDS011;49966;46.896;18.004;2023-06-24T14:33:45;3.08;;;1.80;;
63587;SDS011;49966;46.896;18.004;2023-06-24T14:36:13;3.00;;;1.80;;
63587;SDS011;49966;46.896;18.004;2023-06-24T14:38:41;1.95;;;1.85;;
63587;SDS011;49966;46.896;18.004;2023-06-24T14:41:11;2.10;;;1.90;;
63587;SDS011;49966;46.896;18.004;2023-06-24T14:43:39;2.30;;;2.05;;
63587;SDS011;49966;46.896;18.004;2023-06-24T14:46:07;2.35;;;1.88;;
63587;SDS011;49966;46.896;18.004;2023-06-24T14:48:37;1.73;;;1.63;;
63587;SDS011;49966;46.896;18.004;2023-06-24T14:51:05;4.90;;;2.05;;
63587;SDS011;49966;46.896;18.004;2023-06-24T14:53:37;2.00;;;1.90;;
63587;SDS011;49966;46.896;18.004;2023-06-24T14:56:06;2.03;;;1.90;;
63587;SDS011;49966;46.896;18.004;2023-06-24T14:58:36;1.95;;;1.85;;
63587;SDS011;49966;46.896;18.004;2023-06-24T15:01:05;2.83;;;1.98;;
63587;SDS011;49966;46.896;18.004;2023-06-24T15:03:33;2.97;;;1.90;;
63587;SDS011;49966;46.896;18.004;2023-06-24T15:06:03;2.13;;;1.92;;
63587;SDS011;49966;46.896;18.004;2023-06-24T15:08:31;3.45;;;1.90;;
63587;SDS011;49966;46.896;18.004;2023-06-24T15:11:00;4.32;;;2.22;;
63587;SDS011;49966;46.896;18.004;2023-06-24T15:13:28;3.22;;;2.00;;
63587;SDS011;49966;46.896;18.004;2023-06-24T15:15:56;2.22;;;2.00;;
63587;SDS011;49966;46.896;18.004;2023-06-24T15:18:25;2.65;;;2.10;;
63587;SDS011;49966;46.896;18.004;2023-06-24T15:20:53;2.72;;;2.50;;
63587;SDS011;49966;46.896;18.004;2023-06-24T15:23:24;3.15;;;2.40;;
63587;SDS011;49966;46.896;18.004;2023-06-24T15:25:55;2.40;;;2.20;;
63587;SDS011;49966;46.896;18.004;2023-06-24T15:28:25;2.35;;;2.08;;
63587;SDS011;49966;46.896;18.004;2023-06-24T15:30:54;2.50;;;2.30;;
63587;SDS011;49966;46.896;18.004;2023-06-24T15:33:23;3.17;;;2.10;;
63587;SDS011;49966;46.896;18.004;2023-06-24T15:35:53;2.63;;;2.42;;
63587;SDS011;49966;46.896;18.004;2023-06-24T15:38:21;4.35;;;2.30;;
63587;SDS011;49966;46.896;18.004;2023-06-24T15:40:52;7.05;;;2.47;;
63587;SDS011;49966;46.896;18.004;2023-06-24T15:43:21;4.82;;;2.53;;
63587;SDS011;49966;46.896;18.004;2023-06-24T15:46:00;4.65;;;2.38;;
63587;SDS011;49966;46.896;18.004;2023-06-24T15:48:31;7.10;;;2.70;;
63587;SDS011;49966;46.896;18.004;2023-06-24T15:50:59;3.17;;;2.65;;
63587;SDS011;49966;46.896;18.004;2023-06-24T15:53:28;2.58;;;2.38;;
63587;SDS011;49966;46.896;18.004;2023-06-24T15:56:01;2.50;;;2.30;;
63587;SDS011;49966;46.896;18.004;2023-06-24T15:58:29;3.50;;;2.30;;
63587;SDS011;49966;46.896;18.004;2023-06-24T16:00:57;2.80;;;2.40;;
63587;SDS011;49966;46.896;18.004;2023-06-24T16:03:47;2.67;;;2.47;;
63587;SDS011;49966;46.896;18.004;2023-06-24T16:06:18;4.53;;;2.60;;
63587;SDS011;49966;46.896;18.004;2023-06-24T16:08:47;5.13;;;2.53;;
63587;SDS011;49966;46.896;18.004;2023-06-24T16:11:18;5.80;;;2.63;;
63587;SDS011;49966;46.896;18.004;2023-06-24T16:13:51;3.78;;;2.50;;
63587;SDS011;49966;46.896;18.004;2023-06-24T16:16:20;3.05;;;2.55;;
63587;SDS011;49966;46.896;18.004;2023-06-24T16:18:51;3.17;;;2.58;;
63587;SDS011;49966;46.896;18.004;2023-06-24T16:21:19;4.60;;;2.55;;
63587;SDS011;49966;46.896;18.004;2023-06-24T16:23:48;3.97;;;2.70;;
63587;SDS011;49966;46.896;18.004;2023-06-24T16:26:19;3.95;;;2.65;;
63587;SDS011;49966;46.896;18.004;2023-06-24T16:28:48;3.92;;;2.63;;
63587;SDS011;49966;46.896;18.004;2023-06-24T16:31:23;5.35;;;2.70;;
63587;SDS011;49966;46.896;18.004;2023-06-24T16:33:51;4.43;;;2.70;;
63587;SDS011;49966;46.896;18.004;2023-06-24T16:36:20;3.47;;;2.67;;
63587;SDS011;49966;46.896;18.004;2023-06-24T16:38:48;5.45;;;2.60;;
63587;SDS011;49966;46.896;18.004;2023-06-24T16:41:20;5.18;;;2.75;;
63587;SDS011;49966;46.896;18.004;2023-06-24T16:43:49;3.30;;;2.80;;
63587;SDS011;49966;46.896;18.004;2023-06-24T16:46:17;5.07;;;2.90;;
63587;SDS011;49966;46.896;18.004;2023-06-24T16:48:45;7.40;;;2.70;;
63587;SDS011;49966;46.896;18.004;2023-06-24T16:51:14;3.05;;;2.70;;
63587;SDS011;49966;46.896;18.004;2023-06-24T16:53:48;4.03;;;2.97;;
63587;SDS011;49966;46.896;18.004;2023-06-24T17:02:09;3.60;;;2.78;;
63587;SDS011;49966;46.896;18.004;2023-06-24T17:04:59;2.75;;;2.35;;
63587;SDS011;49966;46.896;18.004;2023-06-24T17:07:28;3.70;;;2.70;;
63587;SDS011;49966;46.896;18.004;2023-06-24T17:09:57;2.88;;;2.45;;
63587;SDS011;49966;46.896;18.004;2023-06-24T17:12:26;2.65;;;2.42;;
63587;SDS011;49966;46.896;18.004;2023-06-24T17:14:55;5.18;;;3.10;;
63587;SDS011;49966;46.896;18.004;2023-06-24T17:17:26;4.80;;;2.72;;
63587;SDS011;49966;46.896;18.004;2023-06-24T17:19:54;4.47;;;2.85;;
63587;SDS011;49966;46.896;18.004;2023-06-24T17:22:22;3.42;;;2.60;;
63587;SDS011;49966;46.896;18.004;2023-06-24T17:24:51;3.67;;;2.80;;
63587;SDS011;49966;46.896;18.004;2023-06-24T17:27:20;3.75;;;2.50;;
63587;SDS011;49966;46.896;18.004;2023-06-24T17:29:50;4.28;;;2.67;;
63587;SDS011;49966;46.896;18.004;2023-06-24T17:32:23;2.88;;;2.58;;
63587;SDS011;49966;46.896;18.004;2023-06-24T17:34:59;6.82;;;2.40;;
63587;SDS011;49966;46.896;18.004;2023-06-24T17:37:30;3.75;;;2.50;;
63587;SDS011;49966;46.896;18.004;2023-06-24T17:39:59;3.67;;;2.70;;
63587;SDS011;49966;46.896;18.004;2023-06-24T17:42:31;3.60;;;2.67;;
63587;SDS011;49966;46.896;18.004;2023-06-24T17:45:00;3.40;;;2.80;;
63587;SDS011;49966;46.896;18.004;2023-06-24T17:47:33;3.42;;;2.55;;
63587;SDS011;49966;46.896;18.004;2023-06-24T17:50:02;3.20;;;2.72;;
63587;SDS011;49966;46.896;18.004;2023-06-24T17:52:30;9.05;;;2.78;;
63587;SDS011;49966;46.896;18.004;2023-06-24T17:55:00;3.13;;;2.58;;
63587;SDS011;49966;46.896;18.004;2023-06-24T17:57:31;3.60;;;2.70;;
63587;SDS011;49966;46.896;18.004;2023-06-24T18:00:01;8.73;;;2.83;;
63587;SDS011;49966;46.896;18.004;2023-06-24T18:02:32;7.13;;;2.88;;
63587;SDS011;49966;46.896;18.004;2023-06-24T18:05:03;3.15;;;2.55;;
63587;SDS011;49966;46.896;18.004;2023-06-24T18:07:32;5.65;;;3.08;;
63587;SDS011;49966;46.896;18.004;2023-06-24T18:10:03;7.05;;;2.85;;
63587;SDS011;49966;46.896;18.004;2023-06-24T18:12:32;4.35;;;2.88;;
63587;SDS011;49966;46.896;18.004;2023-06-24T18:15:04;6.05;;;2.67;;
63587;SDS011;49966;46.896;18.004;2023-06-24T18:17:33;4.53;;;3.00;;
63587;SDS011;49966;46.896;18.004;2023-06-24T18:20:02;4.60;;;3.00;;
63587;SDS011;49966;46.896;18.004;2023-06-24T18:22:32;5.13;;;2.88;;
63587;SDS011;49966;46.896;18.004;2023-06-24T18:25:00;6.07;;;2.83;;
63587;SDS011;49966;46.896;18.004;2023-06-24T18:27:29;4.28;;;3.10;;
63587;SDS011;49966;46.896;18.004;2023-06-24T18:29:57;5.97;;;3.50;;
63587;SDS011;49966;46.896;18.004;2023-06-24T18:32:30;5.25;;;2.83;;
63587;SDS011;49966;46.896;18.004;2023-06-24T18:35:10;5.07;;;3.35;;
63587;SDS011;49966;46.896;18.004;2023-06-24T18:37:38;7.35;;;3.22;;
63587;SDS011;49966;46.896;18.004;2023-06-24T18:40:07;4.70;;;3.20;;
63587;SDS011;49966;46.896;18.004;2023-06-24T18:42:48;4.88;;;3.00;;
63587;SDS011;49966;46.896;18.004;2023-06-24T18:45:19;3.42;;;2.60;;
63587;SDS011;49966;46.896;18.004;2023-06-24T18:48:04;4.60;;;2.85;;
63587;SDS011;49966;46.896;18.004;2023-06-24T18:50:33;6.05;;;2.80;;
63587;SDS011;49966;46.896;18.004;2023-06-24T18:53:01;5.63;;;2.83;;
63587;SDS011;49966;46.896;18.004;2023-06-24T18:55:32;3.90;;;2.80;;
63587;SDS011;49966;46.896;18.004;2023-06-24T18:58:03;5.45;;;2.80;;
63587;SDS011;49966;46.896;18.004;2023-06-24T19:00:31;3.83;;;2.75;;
63587;SDS011;49966;46.896;18.004;2023-06-24T19:03:02;4.60;;;2.75;;
63587;SDS011;49966;46.896;18.004;2023-06-24T19:05:32;3.83;;;2.70;;
63587;SDS011;49966;46.896;18.004;2023-06-24T19:08:15;3.83;;;2.80;;
63587;SDS011;49966;46.896;18.004;2023-06-24T19:10:51;3.97;;;3.05;;
63587;SDS011;49966;46.896;18.004;2023-06-24T19:13:20;4.10;;;2.97;;
63587;SDS011;49966;46.896;18.004;2023-06-24T19:15:51;4.28;;;3.08;;
63587;SDS011;49966;46.896;18.004;2023-06-24T19:18:21;4.40;;;2.95;;
63587;SDS011;49966;46.896;18.004;2023-06-24T19:20:52;4.32;;;2.60;;
63587;SDS011;49966;46.896;18.004;2023-06-24T19:23:21;5.72;;;3.10;;
63587;SDS011;49966;46.896;18.004;2023-06-24T19:25:49;3.70;;;2.70;;
63587;SDS011;49966;46.896;18.004;2023-06-24T19:28:17;4.32;;;3.05;;
63587;SDS011;49966;46.896;18.004;2023-06-24T19:30:52;3.67;;;3.00;;
63587;SDS011;49966;46.896;18.004;2023-06-24T19:33:28;5.00;;;3.00;;
63587;SDS011;49966;46.896;18.004;2023-06-24T19:35:56;5.10;;;3.00;;
63587;SDS011;49966;46.896;18.004;2023-06-24T19:38:24;7.05;;;3.30;;
63587;SDS011;49966;46.896;18.004;2023-06-24T19:40:53;4.85;;;3.22;;
63587;SDS011;49966;46.896;18.004;2023-06-24T19:43:21;6.90;;;4.07;;
63587;SDS011;49966;46.896;18.004;2023-06-24T19:45:51;9.52;;;3.00;;
63587;SDS011;49966;46.896;18.004;2023-06-24T19:48:19;7.53;;;3.60;;
63587;SDS011;49966;46.896;18.004;2023-06-24T19:50:50;5.15;;;3.03;;
63587;SDS011;49966;46.896;18.004;2023-06-24T19:53:21;4.78;;;3.15;;
63587;SDS011;49966;46.896;18.004;2023-06-24T19:55:49;4.88;;;3.10;;
63587;SDS011;49966;46.896;18.004;2023-06-24T19:58:18;6.60;;;3.70;;
63587;SDS011;49966;46.896;18.004;2023-06-24T20:00:46;5.63;;;3.13;;
63587;SDS011;49966;46.896;18.004;2023-06-24T20:03:14;3.58;;;3.00;;
63587;SDS011;49966;46.896;18.004;2023-06-24T20:05:43;9.13;;;3.10;;
63587;SDS011;49966;46.896;18.004;2023-06-24T20:08:13;4.63;;;2.97;;
63587;SDS011;49966;46.896;18.004;2023-06-24T20:10:43;6.55;;;3.03;;
63587;SDS011;49966;46.896;18.004;2023-06-24T20:13:12;6.20;;;3.13;;
63587;SDS011;49966;46.896;18.004;2023-06-24T20:15:41;5.13;;;3.13;;
63587;SDS011;49966;46.896;18.004;2023-06-24T20:18:10;6.78;;;3.15;;
63587;SDS011;49966;46.896;18.004;2023-06-24T20:24:35;6.47;;;3.20;;
63587;SDS011;49966;46.896;18.004;2023-06-24T20:27:11;6.22;;;3.22;;
63587;SDS011;49966;46.896;18.004;2023-06-24T20:32:37;4.23;;;3.03;;
63587;SDS011;49966;46.896;18.004;2023-06-24T20:38:03;5.05;;;3.17;;
63587;SDS011;49966;46.896;18.004;2023-06-24T20:40:49;4.85;;;3.40;;
63587;SDS011;49966;46.896;18.004;2023-06-24T20:43:21;6.53;;;3.13;;
63587;SDS011;49966;46.896;18.004;2023-06-24T20:45:50;3.70;;;2.80;;
63587;SDS011;49966;46.896;18.004;2023-06-24T20:48:23;5.05;;;3.53;;
63587;SDS011;49966;46.896;18.004;2023-06-24T20:51:35;4.88;;;3.30;;
63587;SDS011;49966;46.896;18.004;2023-06-24T20:54:46;3.83;;;3.03;;
63587;SDS011;49966;46.896;18.004;2023-06-24T20:57:27;6.57;;;3.30;;
63587;SDS011;49966;46.896;18.004;2023-06-24T21:00:47;5.07;;;3.10;;
63587;SDS011;49966;46.896;18.004;2023-06-24T21:03:16;3.42;;;3.03;;
63587;SDS011;49966;46.896;18.004;2023-06-24T21:05:48;5.32;;;3.00;;
63587;SDS011;49966;46.896;18.004;2023-06-24T21:08:20;5.22;;;3.17;;
63587;SDS011;49966;46.896;18.004;2023-06-24T21:15:42;5.75;;;3.20;;
63587;SDS011;49966;46.896;18.004;2023-06-24T21:21:29;6.22;;;3.15;;
63587;SDS011;49966;46.896;18.004;2023-06-24T21:37:42;10.65;;;3.53;;
63587;SDS011;49966;46.896;18.004;2023-06-24T21:40:12;5.78;;;3.45;;
63587;SDS011;49966;46.896;18.004;2023-06-24T21:43:28;5.80;;;3.33;;
63587;SDS011;49966;46.896;18.004;2023-06-24T21:57:59;10.20;;;3.70;;
63587;SDS011;49966;46.896;18.004;2023-06-24T22:00:40;8.68;;;3.47;;
63587;SDS011;49966;46.896;18.004;2023-06-24T22:03:09;6.10;;;3.58;;
63587;SDS011;49966;46.896;18.004;2023-06-24T22:05:40;4.38;;;3.20;;
63587;SDS011;49966;46.896;18.004;2023-06-24T22:08:09;8.02;;;3.55;;
63587;SDS011;49966;46.896;18.004;2023-06-24T22:10:40;5.60;;;3.40;;
63587;SDS011;49966;46.896;18.004;2023-06-24T22:13:18;7.78;;;3.72;;
63587;SDS011;49966;46.896;18.004;2023-06-24T22:15:56;7.63;;;4.07;;
63587;SDS011;49966;46.896;18.004;2023-06-24T22:18:31;5.35;;;3.40;;
63587;SDS011;49966;46.896;18.004;2023-06-24T22:21:22;5.80;;;3.40;;
63587;SDS011;49966;46.896;18.004;2023-06-24T22:23:51;7.20;;;3.63;;
63587;SDS011;49966;46.896;18.004;2023-06-24T22:29:22;7.38;;;3.90;;
63587;SDS011;49966;46.896;18.004;2023-06-24T22:31:54;5.32;;;3.53;;
63587;SDS011;49966;46.896;18.004;2023-06-24T22:37:10;6.40;;;3.95;;
63587;SDS011;49966;46.896;18.004;2023-06-24T22:39:41;5.05;;;3.80;;
63587;SDS011;49966;46.896;18.004;2023-06-24T22:42:50;5.97;;;4.03;;
63587;SDS011;49966;46.896;18.004;2023-06-24T22:45:36;8.10;;;3.70;;
63587;SDS011;49966;46.896;18.004;2023-06-24T22:48:13;6.20;;;3.80;;
63587;SDS011;49966;46.896;18.004;2023-06-24T22:50:43;8.27;;;3.80;;
63587;SDS011;49966;46.896;18.004;2023-06-24T22:53:11;6.53;;;3.67;;
63587;SDS011;49966;46.896;18.004;2023-06-24T22:55:41;8.45;;;3.85;;
63587;SDS011;49966;46.896;18.004;2023-06-24T22:58:10;6.75;;;3.65;;
63587;SDS011;49966;46.896;18.004;2023-06-24T23:00:42;7.00;;;3.72;;
63587;SDS011;49966;46.896;18.004;2023-06-24T23:03:11;7.10;;;3.97;;
63587;SDS011;49966;46.896;18.004;2023-06-24T23:05:40;6.03;;;3.80;;
63587;SDS011;49966;46.896;18.004;2023-06-24T23:08:20;5.90;;;3.78;;
63587;SDS011;49966;46.896;18.004;2023-06-24T23:10:49;5.63;;;3.90;;
63587;SDS011;49966;46.896;18.004;2023-06-24T23:13:35;5.93;;;3.78;;
63587;SDS011;49966;46.896;18.004;2023-06-24T23:22:44;7.57;;;3.97;;
63587;SDS011;49966;46.896;18.004;2023-06-24T23:25:17;5.25;;;3.72;;
63587;SDS011;49966;46.896;18.004;2023-06-24T23:28:52;5.85;;;3.80;;
63587;SDS011;49966;46.896;18.004;2023-06-24T23:31:24;6.72;;;4.18;;
63587;SDS011;49966;46.896;18.004;2023-06-24T23:34:07;4.50;;;3.50;;
63587;SDS011;49966;46.896;18.004;2023-06-24T23:36:53;7.63;;;3.88;;
63587;SDS011;49966;46.896;18.004;2023-06-24T23:39:22;8.10;;;4.70;;
63587;SDS011;49966;46.896;18.004;2023-06-24T23:41:50;7.70;;;4.20;;
63587;SDS011;49966;46.896;18.004;2023-06-24T23:44:27;5.60;;;3.80;;
63587;SDS011;49966;46.896;18.004;2023-06-24T23:46:59;7.38;;;3.83;;
63587;SDS011;49966;46.896;18.004;2023-06-24T23:49:28;6.20;;;3.80;;
63587;SDS011;49966;46.896;18.004;2023-06-24T23:51:56;6.78;;;3.58;;
63587;SDS011;49966;46.896;18.004;2023-06-24T23:54:25;7.28;;;3.58;;
63587;SDS011;49966;46.896;18.004;2023-06-24T23:56:54;6.82;;;4.45;;
63587;SDS011;49966;46.896;18.004;2023-06-24T23:59:22;4.72;;;3.60;;
